sensor_id;sensor_type;location;lat;lon;timestamp;temperature;humidity
83683;DHT22;73663;51.298;5.802;2024-03-22T00:03:01;17.40;54.70
83683;DHT22;73663;51.298;5.802;2024-03-22T00:08:09;17.40;54.80
83683;DHT22;73663;51.298;5.802;2024-03-22T00:13:16;17.40;54.80
83683;DHT22;73663;51.298;5.802;2024-03-22T00:18:24;17.50;54.80
83683;DHT22;73663;51.298;5.802;2024-03-22T00:23:31;17.50;54.90
83683;DHT22;73663;51.298;5.802;2024-03-22T00:28:39;17.50;54.90
83683;DHT22;73663;51.298;5.802;2024-03-22T00:33:46;17.50;55.00
83683;DHT22;73663;51.298;5.802;2024-03-22T00:38:54;17.40;55.00
83683;DHT22;73663;51.298;5.802;2024-03-22T00:44:01;17.50;55.00
83683;DHT22;73663;51.298;5.802;2024-03-22T00:49:09;17.50;55.00
83683;DHT22;73663;51.298;5.802;2024-03-22T00:54:16;17.50;55.10
83683;DHT22;73663;51.298;5.802;2024-03-22T00:59:24;17.50;55.10
83683;DHT22;73663;51.298;5.802;2024-03-22T01:04:31;17.50;55.10
83683;DHT22;73663;51.298;5.802;2024-03-22T01:09:39;17.50;55.20
83683;DHT22;73663;51.298;5.802;2024-03-22T01:14:46;17.50;55.20
83683;DHT22;73663;51.298;5.802;2024-03-22T01:19:54;17.50;55.20
83683;DHT22;73663;51.298;5.802;2024-03-22T01:25:01;17.60;55.30
83683;DHT22;73663;51.298;5.802;2024-03-22T01:30:09;17.60;55.30
83683;DHT22;73663;51.298;5.802;2024-03-22T01:35:17;17.60;55.30
83683;DHT22;73663;51.298;5.802;2024-03-22T01:40:24;17.70;55.40
83683;DHT22;73663;51.298;5.802;2024-03-22T01:45:33;17.70;55.40
83683;DHT22;73663;51.298;5.802;2024-03-22T01:50:41;17.80;55.40
83683;DHT22;73663;51.298;5.802;2024-03-22T01:55:48;17.80;55.40
83683;DHT22;73663;51.298;5.802;2024-03-22T02:00:56;17.80;55.50
83683;DHT22;73663;51.298;5.802;2024-03-22T02:06:03;17.80;55.50
83683;DHT22;73663;51.298;5.802;2024-03-22T02:11:11;17.80;55.50
83683;DHT22;73663;51.298;5.802;2024-03-22T02:16:19;17.80;55.60
83683;DHT22;73663;51.298;5.802;2024-03-22T02:21:26;17.80;55.60
83683;DHT22;73663;51.298;5.802;2024-03-22T02:26:34;17.80;55.60
83683;DHT22;73663;51.298;5.802;2024-03-22T02:31:41;17.80;55.70
83683;DHT22;73663;51.298;5.802;2024-03-22T02:36:49;17.80;55.70
83683;DHT22;73663;51.298;5.802;2024-03-22T02:41:56;17.80;55.70
83683;DHT22;73663;51.298;5.802;2024-03-22T02:47:04;17.80;55.70
83683;DHT22;73663;51.298;5.802;2024-03-22T02:52:11;17.70;55.70
83683;DHT22;73663;51.298;5.802;2024-03-22T02:57:19;17.60;55.70
83683;DHT22;73663;51.298;5.802;2024-03-22T03:02:26;17.50;55.70
83683;DHT22;73663;51.298;5.802;2024-03-22T03:07:34;17.50;55.70
83683;DHT22;73663;51.298;5.802;2024-03-22T03:12:41;17.40;55.70
83683;DHT22;73663;51.298;5.802;2024-03-22T03:17:49;17.40;55.80
83683;DHT22;73663;51.298;5.802;2024-03-22T03:22:56;17.40;55.80
83683;DHT22;73663;51.298;5.802;2024-03-22T03:28:04;17.40;55.80
83683;DHT22;73663;51.298;5.802;2024-03-22T03:33:12;17.40;55.80
83683;DHT22;73663;51.298;5.802;2024-03-22T03:38:19;17.40;55.70
83683;DHT22;73663;51.298;5.802;2024-03-22T03:43:27;17.40;55.80
83683;DHT22;73663;51.298;5.802;2024-03-22T03:48:34;17.40;55.80
83683;DHT22;73663;51.298;5.802;2024-03-22T03:53:42;17.40;55.90
83683;DHT22;73663;51.298;5.802;2024-03-22T03:58:51;17.50;55.80
83683;DHT22;73663;51.298;5.802;2024-03-22T04:03:58;17.50;55.80
83683;DHT22;73663;51.298;5.802;2024-03-22T04:09:06;17.40;55.80
83683;DHT22;73663;51.298;5.802;2024-03-22T04:14:13;17.40;55.90
83683;DHT22;73663;51.298;5.802;2024-03-22T04:19:21;17.40;55.90
83683;DHT22;73663;51.298;5.802;2024-03-22T04:24:29;17.40;55.90
83683;DHT22;73663;51.298;5.802;2024-03-22T04:29:36;17.40;55.90
83683;DHT22;73663;51.298;5.802;2024-03-22T04:34:44;17.40;55.90
83683;DHT22;73663;51.298;5.802;2024-03-22T04:39:51;17.40;55.90
83683;DHT22;73663;51.298;5.802;2024-03-22T04:44:59;17.30;56.00
83683;DHT22;73663;51.298;5.802;2024-03-22T04:50:07;17.40;55.90
83683;DHT22;73663;51.298;5.802;2024-03-22T04:55:14;17.40;56.00
83683;DHT22;73663;51.298;5.802;2024-03-22T05:00:22;17.40;56.00
83683;DHT22;73663;51.298;5.802;2024-03-22T05:05:29;17.40;55.90
83683;DHT22;73663;51.298;5.802;2024-03-22T05:10:37;17.40;55.90
83683;DHT22;73663;51.298;5.802;2024-03-22T05:15:44;17.50;55.90
83683;DHT22;73663;51.298;5.802;2024-03-22T05:20:53;17.50;55.90
83683;DHT22;73663;51.298;5.802;2024-03-22T05:26:00;17.40;55.90
83683;DHT22;73663;51.298;5.802;2024-03-22T05:31:08;17.40;55.90
83683;DHT22;73663;51.298;5.802;2024-03-22T05:36:16;17.40;55.90
83683;DHT22;73663;51.298;5.802;2024-03-22T05:41:23;17.30;55.90
83683;DHT22;73663;51.298;5.802;2024-03-22T05:46:31;17.30;55.90
83683;DHT22;73663;51.298;5.802;2024-03-22T05:51:38;17.30;55.90
83683;DHT22;73663;51.298;5.802;2024-03-22T05:56:46;17.40;56.00
83683;DHT22;73663;51.298;5.802;2024-03-22T06:01:53;17.40;56.00
83683;DHT22;73663;51.298;5.802;2024-03-22T06:07:01;17.40;55.90
83683;DHT22;73663;51.298;5.802;2024-03-22T06:12:08;17.40;55.90
83683;DHT22;73663;51.298;5.802;2024-03-22T06:17:16;17.40;55.90
83683;DHT22;73663;51.298;5.802;2024-03-22T06:22:23;17.40;56.00
83683;DHT22;73663;51.298;5.802;2024-03-22T06:27:30;17.40;56.00
83683;DHT22;73663;51.298;5.802;2024-03-22T06:32:38;17.50;56.00
83683;DHT22;73663;51.298;5.802;2024-03-22T06:37:45;17.50;55.90
83683;DHT22;73663;51.298;5.802;2024-03-22T06:42:53;17.50;56.00
83683;DHT22;73663;51.298;5.802;2024-03-22T06:48:00;17.60;56.00
83683;DHT22;73663;51.298;5.802;2024-03-22T06:53:08;17.60;56.00
83683;DHT22;73663;51.298;5.802;2024-03-22T06:58:15;17.80;55.90
83683;DHT22;73663;51.298;5.802;2024-03-22T07:03:23;17.80;56.00
83683;DHT22;73663;51.298;5.802;2024-03-22T07:08:30;17.80;55.90
83683;DHT22;73663;51.298;5.802;2024-03-22T07:13:38;18.00;56.00
83683;DHT22;73663;51.298;5.802;2024-03-22T07:18:46;18.00;55.90
83683;DHT22;73663;51.298;5.802;2024-03-22T07:23:53;18.00;55.90
83683;DHT22;73663;51.298;5.802;2024-03-22T07:29:01;18.00;55.80
83683;DHT22;73663;51.298;5.802;2024-03-22T07:34:08;18.00;55.80
83683;DHT22;73663;51.298;5.802;2024-03-22T07:39:16;18.00;55.80
83683;DHT22;73663;51.298;5.802;2024-03-22T07:44:23;17.90;55.70
83683;DHT22;73663;51.298;5.802;2024-03-22T07:49:31;17.90;55.70
83683;DHT22;73663;51.298;5.802;2024-03-22T07:54:38;17.80;55.70
83683;DHT22;73663;51.298;5.802;2024-03-22T07:59:46;17.80;55.70
83683;DHT22;73663;51.298;5.802;2024-03-22T08:04:51;18.00;55.90
83683;DHT22;73663;51.298;5.802;2024-03-22T08:09:59;18.20;55.80
83683;DHT22;73663;51.298;5.802;2024-03-22T08:15:06;18.30;55.80
83683;DHT22;73663;51.298;5.802;2024-03-22T08:20:14;18.50;55.80
83683;DHT22;73663;51.298;5.802;2024-03-22T08:25:22;18.60;55.70
83683;DHT22;73663;51.298;5.802;2024-03-22T08:30:29;18.60;55.40
83683;DHT22;73663;51.298;5.802;2024-03-22T08:35:37;18.60;55.50
83683;DHT22;73663;51.298;5.802;2024-03-22T08:40:44;18.80;55.30
83683;DHT22;73663;51.298;5.802;2024-03-22T08:45:53;18.90;55.30
83683;DHT22;73663;51.298;5.802;2024-03-22T08:51:00;18.90;55.20
83683;DHT22;73663;51.298;5.802;2024-03-22T08:56:08;18.90;55.10
83683;DHT22;73663;51.298;5.802;2024-03-22T09:01:15;19.00;55.10
83683;DHT22;73663;51.298;5.802;2024-03-22T09:06:21;18.90;54.90
83683;DHT22;73663;51.298;5.802;2024-03-22T09:11:28;18.90;55.00
83683;DHT22;73663;51.298;5.802;2024-03-22T09:16:36;18.90;54.90
83683;DHT22;73663;51.298;5.802;2024-03-22T09:21:43;18.90;54.70
83683;DHT22;73663;51.298;5.802;2024-03-22T09:26:51;18.80;54.70
83683;DHT22;73663;51.298;5.802;2024-03-22T09:31:58;18.80;54.70
83683;DHT22;73663;51.298;5.802;2024-03-22T09:37:07;18.70;54.70
83683;DHT22;73663;51.298;5.802;2024-03-22T09:42:15;18.70;54.60
83683;DHT22;73663;51.298;5.802;2024-03-22T09:47:23;18.70;54.50
83683;DHT22;73663;51.298;5.802;2024-03-22T09:52:33;18.60;54.40
83683;DHT22;73663;51.298;5.802;2024-03-22T09:57:41;18.60;54.40
83683;DHT22;73663;51.298;5.802;2024-03-22T10:02:49;18.50;54.50
83683;DHT22;73663;51.298;5.802;2024-03-22T10:07:56;18.70;54.60
83683;DHT22;73663;51.298;5.802;2024-03-22T10:13:07;18.70;54.50
83683;DHT22;73663;51.298;5.802;2024-03-22T10:18:14;18.80;54.40
83683;DHT22;73663;51.298;5.802;2024-03-22T10:23:22;18.90;54.40
83683;DHT22;73663;51.298;5.802;2024-03-22T10:28:30;18.90;54.20
83683;DHT22;73663;51.298;5.802;2024-03-22T10:33:39;18.80;54.10
83683;DHT22;73663;51.298;5.802;2024-03-22T10:38:47;18.60;54.20
83683;DHT22;73663;51.298;5.802;2024-03-22T10:43:56;18.60;54.20
83683;DHT22;73663;51.298;5.802;2024-03-22T10:49:04;18.60;54.20
83683;DHT22;73663;51.298;5.802;2024-03-22T10:54:13;18.50;54.10
83683;DHT22;73663;51.298;5.802;2024-03-22T10:59:24;18.50;54.10
83683;DHT22;73663;51.298;5.802;2024-03-22T11:04:32;18.30;54.10
83683;DHT22;73663;51.298;5.802;2024-03-22T11:09:39;18.20;54.20
83683;DHT22;73663;51.298;5.802;2024-03-22T11:14:47;18.10;54.20
83683;DHT22;73663;51.298;5.802;2024-03-22T11:19:54;18.00;54.20
83683;DHT22;73663;51.298;5.802;2024-03-22T11:25:02;18.00;54.30
83683;DHT22;73663;51.298;5.802;2024-03-22T11:30:10;18.00;54.20
83683;DHT22;73663;51.298;5.802;2024-03-22T11:35:18;18.00;54.30
83683;DHT22;73663;51.298;5.802;2024-03-22T11:40:26;18.00;54.30
83683;DHT22;73663;51.298;5.802;2024-03-22T11:45:35;17.80;54.30
83683;DHT22;73663;51.298;5.802;2024-03-22T11:50:42;17.90;54.30
83683;DHT22;73663;51.298;5.802;2024-03-22T11:55:51;17.80;54.40
83683;DHT22;73663;51.298;5.802;2024-03-22T12:00:59;17.80;54.30
83683;DHT22;73663;51.298;5.802;2024-03-22T12:06:06;17.80;54.40
83683;DHT22;73663;51.298;5.802;2024-03-22T12:11:13;17.80;54.40
83683;DHT22;73663;51.298;5.802;2024-03-22T12:16:21;17.60;54.40
83683;DHT22;73663;51.298;5.802;2024-03-22T12:21:28;17.70;54.50
83683;DHT22;73663;51.298;5.802;2024-03-22T12:26:36;17.60;54.50
83683;DHT22;73663;51.298;5.802;2024-03-22T12:31:44;17.60;54.60
83683;DHT22;73663;51.298;5.802;2024-03-22T12:36:51;17.60;54.60
83683;DHT22;73663;51.298;5.802;2024-03-22T12:41:59;17.60;54.60
83683;DHT22;73663;51.298;5.802;2024-03-22T12:47:07;17.60;54.60
83683;DHT22;73663;51.298;5.802;2024-03-22T12:52:14;17.60;54.70
83683;DHT22;73663;51.298;5.802;2024-03-22T12:57:21;17.60;54.70
83683;DHT22;73663;51.298;5.802;2024-03-22T13:02:29;17.60;54.70
83683;DHT22;73663;51.298;5.802;2024-03-22T13:07:37;17.60;54.80
83683;DHT22;73663;51.298;5.802;2024-03-22T13:12:45;17.60;54.90
83683;DHT22;73663;51.298;5.802;2024-03-22T13:17:52;17.60;54.80
83683;DHT22;73663;51.298;5.802;2024-03-22T13:23:00;17.50;54.80
83683;DHT22;73663;51.298;5.802;2024-03-22T13:28:08;17.50;54.90
83683;DHT22;73663;51.298;5.802;2024-03-22T13:33:15;17.50;54.90
83683;DHT22;73663;51.298;5.802;2024-03-22T13:38:23;17.40;55.00
83683;DHT22;73663;51.298;5.802;2024-03-22T13:43:31;17.40;55.00
83683;DHT22;73663;51.298;5.802;2024-03-22T13:48:38;17.30;55.00
83683;DHT22;73663;51.298;5.802;2024-03-22T13:53:46;17.30;55.10
83683;DHT22;73663;51.298;5.802;2024-03-22T13:58:53;17.30;55.00
83683;DHT22;73663;51.298;5.802;2024-03-22T14:04:01;17.20;55.00
83683;DHT22;73663;51.298;5.802;2024-03-22T14:09:08;17.20;55.10
83683;DHT22;73663;51.298;5.802;2024-03-22T14:14:17;17.20;55.10
83683;DHT22;73663;51.298;5.802;2024-03-22T14:19:24;16.90;55.30
83683;DHT22;73663;51.298;5.802;2024-03-22T14:24:32;16.80;55.50
83683;DHT22;73663;51.298;5.802;2024-03-22T14:29:39;16.70;55.50
83683;DHT22;73663;51.298;5.802;2024-03-22T14:34:47;16.70;55.60
83683;DHT22;73663;51.298;5.802;2024-03-22T14:39:54;16.80;55.70
83683;DHT22;73663;51.298;5.802;2024-03-22T14:45:02;16.90;55.70
83683;DHT22;73663;51.298;5.802;2024-03-22T14:50:09;17.00;55.70
83683;DHT22;73663;51.298;5.802;2024-03-22T14:55:17;17.00;55.70
83683;DHT22;73663;51.298;5.802;2024-03-22T15:00:25;17.00;55.70
83683;DHT22;73663;51.298;5.802;2024-03-22T15:05:32;17.00;55.80
83683;DHT22;73663;51.298;5.802;2024-03-22T15:10:40;17.00;55.70
83683;DHT22;73663;51.298;5.802;2024-03-22T15:15:58;17.00;55.70
83683;DHT22;73663;51.298;5.802;2024-03-22T15:21:05;17.00;55.90
83683;DHT22;73663;51.298;5.802;2024-03-22T15:26:13;17.00;55.70
83683;DHT22;73663;51.298;5.802;2024-03-22T15:31:20;17.00;55.80
83683;DHT22;73663;51.298;5.802;2024-03-22T15:36:28;17.00;55.80
83683;DHT22;73663;51.298;5.802;2024-03-22T15:41:35;16.90;55.90
83683;DHT22;73663;51.298;5.802;2024-03-22T15:46:42;16.90;55.90
83683;DHT22;73663;51.298;5.802;2024-03-22T15:51:50;16.80;55.90
83683;DHT22;73663;51.298;5.802;2024-03-22T15:56:57;16.80;56.00
83683;DHT22;73663;51.298;5.802;2024-03-22T16:02:05;16.80;56.00
83683;DHT22;73663;51.298;5.802;2024-03-22T16:07:13;16.70;56.00
83683;DHT22;73663;51.298;5.802;2024-03-22T16:12:20;16.60;56.10
83683;DHT22;73663;51.298;5.802;2024-03-22T16:17:28;16.50;56.10
83683;DHT22;73663;51.298;5.802;2024-03-22T16:22:35;16.50;56.20
83683;DHT22;73663;51.298;5.802;2024-03-22T16:27:43;16.40;56.20
83683;DHT22;73663;51.298;5.802;2024-03-22T16:32:50;16.40;56.20
83683;DHT22;73663;51.298;5.802;2024-03-22T16:37:58;16.40;56.20
83683;DHT22;73663;51.298;5.802;2024-03-22T16:43:05;16.40;56.20
83683;DHT22;73663;51.298;5.802;2024-03-22T16:48:13;16.40;56.30
83683;DHT22;73663;51.298;5.802;2024-03-22T16:53:20;16.40;56.20
83683;DHT22;73663;51.298;5.802;2024-03-22T16:58:28;16.40;56.30
83683;DHT22;73663;51.298;5.802;2024-03-22T17:03:35;16.40;56.40
83683;DHT22;73663;51.298;5.802;2024-03-22T17:08:43;16.20;56.50
83683;DHT22;73663;51.298;5.802;2024-03-22T17:13:50;16.20;56.50
83683;DHT22;73663;51.298;5.802;2024-03-22T17:18:58;16.20;56.50
83683;DHT22;73663;51.298;5.802;2024-03-22T17:24:05;16.20;56.50
83683;DHT22;73663;51.298;5.802;2024-03-22T17:29:13;16.10;56.50
83683;DHT22;73663;51.298;5.802;2024-03-22T17:34:20;16.00;56.60
83683;DHT22;73663;51.298;5.802;2024-03-22T17:39:28;16.00;56.60
83683;DHT22;73663;51.298;5.802;2024-03-22T17:44:35;16.00;56.60
83683;DHT22;73663;51.298;5.802;2024-03-22T17:49:43;16.00;56.70
83683;DHT22;73663;51.298;5.802;2024-03-22T17:54:50;16.00;56.70
83683;DHT22;73663;51.298;5.802;2024-03-22T17:59:58;16.00;56.80
83683;DHT22;73663;51.298;5.802;2024-03-22T18:05:05;15.80;56.60
83683;DHT22;73663;51.298;5.802;2024-03-22T18:10:13;15.60;56.50
83683;DHT22;73663;51.298;5.802;2024-03-22T18:15:20;15.50;56.50
83683;DHT22;73663;51.298;5.802;2024-03-22T18:20:28;15.50;56.50
83683;DHT22;73663;51.298;5.802;2024-03-22T18:25:35;15.40;56.50
83683;DHT22;73663;51.298;5.802;2024-03-22T18:30:43;15.40;56.50
83683;DHT22;73663;51.298;5.802;2024-03-22T18:35:51;15.30;56.50
83683;DHT22;73663;51.298;5.802;2024-03-22T18:40:59;15.30;56.50
83683;DHT22;73663;51.298;5.802;2024-03-22T18:46:06;15.30;56.50
83683;DHT22;73663;51.298;5.802;2024-03-22T18:51:14;15.30;56.50
83683;DHT22;73663;51.298;5.802;2024-03-22T18:56:21;15.30;56.50
83683;DHT22;73663;51.298;5.802;2024-03-22T19:01:29;15.30;56.50
83683;DHT22;73663;51.298;5.802;2024-03-22T19:06:36;15.30;56.50
83683;DHT22;73663;51.298;5.802;2024-03-22T19:11:44;15.30;56.50
83683;DHT22;73663;51.298;5.802;2024-03-22T19:16:51;15.30;56.50
83683;DHT22;73663;51.298;5.802;2024-03-22T19:21:59;15.30;56.50
83683;DHT22;73663;51.298;5.802;2024-03-22T19:27:06;15.40;56.50
83683;DHT22;73663;51.298;5.802;2024-03-22T19:32:14;15.40;56.60
83683;DHT22;73663;51.298;5.802;2024-03-22T19:37:21;15.40;56.60
83683;DHT22;73663;51.298;5.802;2024-03-22T19:42:29;15.50;56.60
83683;DHT22;73663;51.298;5.802;2024-03-22T19:47:36;15.50;56.60
83683;DHT22;73663;51.298;5.802;2024-03-22T19:52:44;15.50;56.60
83683;DHT22;73663;51.298;5.802;2024-03-22T19:57:52;15.50;56.70
83683;DHT22;73663;51.298;5.802;2024-03-22T20:02:59;15.50;56.70
83683;DHT22;73663;51.298;5.802;2024-03-22T20:08:07;15.50;56.70
83683;DHT22;73663;51.298;5.802;2024-03-22T20:13:14;15.50;56.60
83683;DHT22;73663;51.298;5.802;2024-03-22T20:18:22;15.40;56.60
83683;DHT22;73663;51.298;5.802;2024-03-22T20:23:29;15.30;56.60
83683;DHT22;73663;51.298;5.802;2024-03-22T20:28:36;15.20;56.60
83683;DHT22;73663;51.298;5.802;2024-03-22T20:33:44;15.10;56.60
